sensor_id;sensor_type;location;lat;lon;timestamp;pressure;altitude;pressure_sealevel;temperature;humidity
23589;BME280;11972;48.078;11.876;2023-07-20T00:01:55;95089.69;;;17.88;100.00
23589;BME280;11972;48.078;11.876;2023-07-20T00:05:55;95098.94;;;17.97;100.00
23589;BME280;11972;48.078;11.876;2023-07-20T00:09:55;95087.19;;;17.98;100.00
23589;BME280;11972;48.078;11.876;2023-07-20T00:13:56;95100.19;;;18.06;100.00
23589;BME280;11972;48.078;11.876;2023-07-20T00:17:56;95080.06;;;18.15;100.00
23589;BME280;11972;48.078;11.876;2023-07-20T00:21:57;95094.28;;;18.04;100.00
23589;BME280;11972;48.078;11.876;2023-07-20T00:25:57;95102.97;;;17.82;100.00
23589;BME280;11972;48.078;11.876;2023-07-20T00:29:58;95103.69;;;17.66;100.00
23589;BME280;11972;48.078;11.876;2023-07-20T00:33:58;95091.63;;;17.52;100.00
23589;BME280;11972;48.078;11.876;2023-07-20T00:37:58;95096.41;;;17.38;100.00
23589;BME280;11972;48.078;11.876;2023-07-20T00:41:59;95095.25;;;17.34;100.00
23589;BME280;11972;48.078;11.876;2023-07-20T00:45:59;95093.03;;;17.43;100.00
23589;BME280;11972;48.078;11.876;2023-07-20T00:50:00;95097.66;;;17.47;100.00
23589;BME280;11972;48.078;11.876;2023-07-20T00:54:00;95103.00;;;17.47;100.00
23589;BME280;11972;48.078;11.876;2023-07-20T00:58:01;95112.88;;;17.58;100.00
23589;BME280;11972;48.078;11.876;2023-07-20T01:02:02;95107.72;;;17.69;100.00
23589;BME280;11972;48.078;11.876;2023-07-20T01:10:12;95107.34;;;17.89;100.00
23589;BME280;11972;48.078;11.876;2023-07-20T01:14:15;95095.22;;;17.98;100.00
23589;BME280;11972;48.078;11.876;2023-07-20T01:18:16;95126.00;;;18.29;100.00
23589;BME280;11972;48.078;11.876;2023-07-20T01:22:46;95113.66;;;18.56;100.00
23589;BME280;11972;48.078;11.876;2023-07-20T01:27:00;95107.22;;;18.41;100.00
23589;BME280;11972;48.078;11.876;2023-07-20T01:35:16;95101.03;;;18.06;100.00
23589;BME280;11972;48.078;11.876;2023-07-20T01:39:18;95093.97;;;17.89;100.00
23589;BME280;11972;48.078;11.876;2023-07-20T01:43:19;95090.41;;;17.83;100.00
23589;BME280;11972;48.078;11.876;2023-07-20T01:47:19;95092.16;;;17.77;100.00
23589;BME280;11972;48.078;11.876;2023-07-20T01:51:20;95086.97;;;17.59;100.00
23589;BME280;11972;48.078;11.876;2023-07-20T01:55:20;95090.22;;;17.61;100.00
23589;BME280;11972;48.078;11.876;2023-07-20T01:59:20;95098.34;;;17.66;100.00
23589;BME280;11972;48.078;11.876;2023-07-20T02:03:20;95094.16;;;17.70;100.00
23589;BME280;11972;48.078;11.876;2023-07-20T02:07:22;95090.88;;;17.68;100.00
23589;BME280;11972;48.078;11.876;2023-07-20T02:11:22;95089.50;;;17.66;100.00
23589;BME280;11972;48.078;11.876;2023-07-20T02:15:22;95088.69;;;17.65;100.00
23589;BME280;11972;48.078;11.876;2023-07-20T02:19:25;95099.16;;;17.67;100.00
23589;BME280;11972;48.078;11.876;2023-07-20T02:23:26;95088.81;;;17.70;100.00
23589;BME280;11972;48.078;11.876;2023-07-20T02:27:26;95096.56;;;17.72;100.00
23589;BME280;11972;48.078;11.876;2023-07-20T02:31:27;95091.22;;;17.72;100.00
23589;BME280;11972;48.078;11.876;2023-07-20T02:35:27;95098.56;;;17.76;100.00
23589;BME280;11972;48.078;11.876;2023-07-20T02:39:28;95093.00;;;17.78;100.00
23589;BME280;11972;48.078;11.876;2023-07-20T02:43:28;95087.88;;;17.76;100.00
23589;BME280;11972;48.078;11.876;2023-07-20T02:47:28;95091.13;;;17.78;100.00
23589;BME280;11972;48.078;11.876;2023-07-20T02:51:29;95097.03;;;17.80;100.00
23589;BME280;11972;48.078;11.876;2023-07-20T02:55:29;95087.41;;;17.79;100.00
23589;BME280;11972;48.078;11.876;2023-07-20T02:59:30;95083.59;;;17.75;100.00
23589;BME280;11972;48.078;11.876;2023-07-20T03:03:30;95078.47;;;17.74;100.00
23589;BME280;11972;48.078;11.876;2023-07-20T03:07:30;95080.44;;;17.78;100.00
23589;BME280;11972;48.078;11.876;2023-07-20T03:11:32;95089.81;;;17.81;100.00
23589;BME280;11972;48.078;11.876;2023-07-20T03:15:32;95108.31;;;17.82;100.00
23589;BME280;11972;48.078;11.876;2023-07-20T03:19:33;95119.97;;;17.53;100.00
23589;BME280;11972;48.078;11.876;2023-07-20T03:23:33;95121.03;;;17.05;100.00
23589;BME280;11972;48.078;11.876;2023-07-20T03:27:33;95117.69;;;16.98;100.00
23589;BME280;11972;48.078;11.876;2023-07-20T03:31:34;95129.38;;;16.73;100.00
23589;BME280;11972;48.078;11.876;2023-07-20T03:35:34;95128.78;;;16.29;100.00
23589;BME280;11972;48.078;11.876;2023-07-20T03:39:34;95121.19;;;16.15;100.00
23589;BME280;11972;48.078;11.876;2023-07-20T03:43:35;95122.50;;;16.24;100.00
23589;BME280;11972;48.078;11.876;2023-07-20T03:47:35;95145.78;;;16.28;100.00
23589;BME280;11972;48.078;11.876;2023-07-20T03:51:35;95167.31;;;16.15;100.00
23589;BME280;11972;48.078;11.876;2023-07-20T03:55:36;95149.25;;;16.17;100.00
23589;BME280;11972;48.078;11.876;2023-07-20T03:59:39;95161.09;;;16.21;100.00
23589;BME280;11972;48.078;11.876;2023-07-20T04:03:39;95159.91;;;16.17;100.00
23589;BME280;11972;48.078;11.876;2023-07-20T04:07:40;95151.91;;;16.17;100.00
23589;BME280;11972;48.078;11.876;2023-07-20T04:11:40;95156.66;;;16.15;100.00
23589;BME280;11972;48.078;11.876;2023-07-20T04:15:42;95158.88;;;16.00;100.00
23589;BME280;11972;48.078;11.876;2023-07-20T04:19:42;95153.72;;;16.05;100.00
23589;BME280;11972;48.078;11.876;2023-07-20T04:23:42;95148.53;;;16.10;100.00
23589;BME280;11972;48.078;11.876;2023-07-20T04:27:43;95156.69;;;15.97;100.00
23589;BME280;11972;48.078;11.876;2023-07-20T04:31:43;95151.44;;;15.72;100.00
23589;BME280;11972;48.078;11.876;2023-07-20T04:35:51;95147.66;;;15.79;100.00
23589;BME280;11972;48.078;11.876;2023-07-20T04:39:52;95140.09;;;15.95;100.00
23589;BME280;11972;48.078;11.876;2023-07-20T04:43:52;95156.22;;;16.00;100.00
23589;BME280;11972;48.078;11.876;2023-07-20T04:47:53;95160.69;;;15.87;100.00
23589;BME280;11972;48.078;11.876;2023-07-20T04:51:54;95160.88;;;16.04;100.00
23589;BME280;11972;48.078;11.876;2023-07-20T04:55:54;95155.41;;;16.18;100.00
23589;BME280;11972;48.078;11.876;2023-07-20T04:59:55;95154.03;;;16.27;100.00
23589;BME280;11972;48.078;11.876;2023-07-20T05:03:55;95157.91;;;16.43;100.00
23589;BME280;11972;48.078;11.876;2023-07-20T05:07:55;95152.25;;;16.51;100.00
23589;BME280;11972;48.078;11.876;2023-07-20T05:11:56;95150.75;;;16.55;100.00
23589;BME280;11972;48.078;11.876;2023-07-20T05:15:56;95153.53;;;16.60;100.00
23589;BME280;11972;48.078;11.876;2023-07-20T05:19:56;95162.25;;;16.67;100.00
23589;BME280;11972;48.078;11.876;2023-07-20T05:23:57;95173.59;;;16.51;100.00
23589;BME280;11972;48.078;11.876;2023-07-20T05:27:57;95172.13;;;16.36;100.00
23589;BME280;11972;48.078;11.876;2023-07-20T05:31:57;95167.88;;;16.47;100.00
23589;BME280;11972;48.078;11.876;2023-07-20T05:35:58;95166.88;;;16.60;100.00
23589;BME280;11972;48.078;11.876;2023-07-20T05:39:58;95165.81;;;16.61;100.00
23589;BME280;11972;48.078;11.876;2023-07-20T05:43:58;95161.97;;;16.75;100.00
23589;BME280;11972;48.078;11.876;2023-07-20T05:47:58;95160.81;;;16.83;100.00
23589;BME280;11972;48.078;11.876;2023-07-20T05:51:59;95164.31;;;17.07;100.00
23589;BME280;11972;48.078;11.876;2023-07-20T05:56:01;95164.53;;;16.94;100.00
23589;BME280;11972;48.078;11.876;2023-07-20T06:00:01;95183.31;;;16.99;100.00
23589;BME280;11972;48.078;11.876;2023-07-20T06:04:02;95164.09;;;17.20;100.00
23589;BME280;11972;48.078;11.876;2023-07-20T06:08:03;95168.34;;;17.56;100.00
23589;BME280;11972;48.078;11.876;2023-07-20T06:12:04;95175.38;;;17.98;100.00
23589;BME280;11972;48.078;11.876;2023-07-20T06:16:04;95169.41;;;18.48;100.00
23589;BME280;11972;48.078;11.876;2023-07-20T06:20:05;95182.44;;;18.73;100.00
23589;BME280;11972;48.078;11.876;2023-07-20T06:24:07;95175.50;;;18.89;100.00
23589;BME280;11972;48.078;11.876;2023-07-20T06:28:07;95183.94;;;18.97;100.00
23589;BME280;11972;48.078;11.876;2023-07-20T06:32:08;95177.34;;;19.05;100.00
23589;BME280;11972;48.078;11.876;2023-07-20T06:36:08;95180.19;;;19.15;100.00
23589;BME280;11972;48.078;11.876;2023-07-20T06:40:09;95174.34;;;19.35;100.00
23589;BME280;11972;48.078;11.876;2023-07-20T06:44:09;95179.66;;;19.52;100.00
23589;BME280;11972;48.078;11.876;2023-07-20T06:48:09;95183.22;;;19.74;100.00
23589;BME280;11972;48.078;11.876;2023-07-20T06:52:10;95187.59;;;19.80;100.00
23589;BME280;11972;48.078;11.876;2023-07-20T06:56:10;95191.66;;;19.66;100.00
23589;BME280;11972;48.078;11.876;2023-07-20T07:00:12;95190.06;;;19.65;100.00
23589;BME280;11972;48.078;11.876;2023-07-20T07:04:12;95204.00;;;19.84;100.00
23589;BME280;11972;48.078;11.876;2023-07-20T07:08:13;95189.22;;;20.25;100.00
23589;BME280;11972;48.078;11.876;2023-07-20T07:12:13;95184.56;;;20.65;100.00
23589;BME280;11972;48.078;11.876;2023-07-20T07:16:14;95197.19;;;20.42;100.00
23589;BME280;11972;48.078;11.876;2023-07-20T07:20:18;95200.41;;;20.66;100.00
23589;BME280;11972;48.078;11.876;2023-07-20T07:24:19;95193.94;;;20.94;100.00
23589;BME280;11972;48.078;11.876;2023-07-20T07:28:19;95205.94;;;21.41;100.00
23589;BME280;11972;48.078;11.876;2023-07-20T07:32:19;95206.94;;;21.35;100.00
23589;BME280;11972;48.078;11.876;2023-07-20T07:36:20;95206.25;;;21.17;100.00
23589;BME280;11972;48.078;11.876;2023-07-20T07:40:20;95218.34;;;20.88;100.00
23589;BME280;11972;48.078;11.876;2023-07-20T07:44:20;95216.09;;;20.52;100.00
23589;BME280;11972;48.078;11.876;2023-07-20T07:48:21;95228.59;;;20.03;100.00
23589;BME280;11972;48.078;11.876;2023-07-20T07:52:22;95219.13;;;20.39;100.00
23589;BME280;11972;48.078;11.876;2023-07-20T07:56:22;95220.75;;;20.89;100.00
23589;BME280;11972;48.078;11.876;2023-07-20T08:00:23;95227.41;;;21.41;100.00
23589;BME280;11972;48.078;11.876;2023-07-20T08:04:23;95224.13;;;22.13;100.00
23589;BME280;11972;48.078;11.876;2023-07-20T08:08:23;95223.16;;;22.40;100.00
23589;BME280;11972;48.078;11.876;2023-07-20T08:12:24;95215.94;;;22.56;100.00
23589;BME280;11972;48.078;11.876;2023-07-20T08:16:24;95214.66;;;22.78;100.00
23589;BME280;11972;48.078;11.876;2023-07-20T08:20:25;95222.28;;;23.17;100.00
23589;BME280;11972;48.078;11.876;2023-07-20T08:24:26;95224.44;;;23.31;100.00
23589;BME280;11972;48.078;11.876;2023-07-20T08:28:27;95233.03;;;23.02;100.00
23589;BME280;11972;48.078;11.876;2023-07-20T08:32:29;95243.81;;;22.29;100.00
23589;BME280;11972;48.078;11.876;2023-07-20T08:36:29;95234.56;;;22.67;100.00
23589;BME280;11972;48.078;11.876;2023-07-20T08:40:33;95241.16;;;23.22;100.00
23589;BME280;11972;48.078;11.876;2023-07-20T08:44:39;95239.00;;;23.50;100.00
23589;BME280;11972;48.078;11.876;2023-07-20T08:48:42;95241.16;;;23.43;100.00
23589;BME280;11972;48.078;11.876;2023-07-20T08:52:43;95239.53;;;23.62;100.00
23589;BME280;11972;48.078;11.876;2023-07-20T08:56:45;95241.66;;;23.45;100.00
23589;BME280;11972;48.078;11.876;2023-07-20T09:00:46;95238.19;;;23.39;100.00
23589;BME280;11972;48.078;11.876;2023-07-20T09:04:46;95242.47;;;23.05;100.00
23589;BME280;11972;48.078;11.876;2023-07-20T09:08:47;95241.38;;;22.90;100.00
23589;BME280;11972;48.078;11.876;2023-07-20T09:12:47;95240.56;;;23.97;100.00
23589;BME280;11972;48.078;11.876;2023-07-20T09:16:54;95234.53;;;24.31;100.00
23589;BME280;11972;48.078;11.876;2023-07-20T09:21:03;95241.53;;;24.32;100.00
23589;BME280;11972;48.078;11.876;2023-07-20T09:25:06;95234.59;;;24.80;100.00
23589;BME280;11972;48.078;11.876;2023-07-20T09:29:07;95235.75;;;25.18;100.00
23589;BME280;11972;48.078;11.876;2023-07-20T09:33:18;95230.38;;;24.69;100.00
23589;BME280;11972;48.078;11.876;2023-07-20T09:37:20;95227.66;;;23.63;100.00
23589;BME280;11972;48.078;11.876;2023-07-20T09:41:21;95239.50;;;23.01;100.00
23589;BME280;11972;48.078;11.876;2023-07-20T09:45:22;95237.34;;;22.93;100.00
23589;BME280;11972;48.078;11.876;2023-07-20T09:49:22;95248.63;;;22.95;100.00
23589;BME280;11972;48.078;11.876;2023-07-20T09:53:24;95253.44;;;22.83;100.00
23589;BME280;11972;48.078;11.876;2023-07-20T09:57:26;95244.00;;;22.80;100.00
23589;BME280;11972;48.078;11.876;2023-07-20T10:01:26;95237.09;;;23.10;100.00
23589;BME280;11972;48.078;11.876;2023-07-20T10:05:27;95240.56;;;22.95;100.00
23589;BME280;11972;48.078;11.876;2023-07-20T10:09:32;95251.66;;;23.14;100.00
23589;BME280;11972;48.078;11.876;2023-07-20T10:13:38;95248.72;;;23.66;100.00
23589;BME280;11972;48.078;11.876;2023-07-20T10:17:47;95250.28;;;24.03;100.00
23589;BME280;11972;48.078;11.876;2023-07-20T10:21:56;95235.78;;;24.69;100.00
23589;BME280;11972;48.078;11.876;2023-07-20T10:26:01;95242.31;;;24.53;100.00
23589;BME280;11972;48.078;11.876;2023-07-20T10:30:01;95236.47;;;24.20;100.00
23589;BME280;11972;48.078;11.876;2023-07-20T10:34:04;95236.81;;;23.77;100.00
23589;BME280;11972;48.078;11.876;2023-07-20T10:38:04;95237.66;;;23.68;100.00
23589;BME280;11972;48.078;11.876;2023-07-20T10:42:09;95247.34;;;23.23;100.00
23589;BME280;11972;48.078;11.876;2023-07-20T10:46:13;95237.09;;;23.30;100.00
23589;BME280;11972;48.078;11.876;2023-07-20T10:50:14;95224.97;;;22.97;100.00
23589;BME280;11972;48.078;11.876;2023-07-20T10:58:17;95227.66;;;23.33;100.00
23589;BME280;11972;48.078;11.876;2023-07-20T11:02:19;95210.72;;;23.37;100.00
23589;BME280;11972;48.078;11.876;2023-07-20T11:10:23;95206.63;;;23.24;100.00
23589;BME280;11972;48.078;11.876;2023-07-20T11:14:25;95209.09;;;23.21;100.00
23589;BME280;11972;48.078;11.876;2023-07-20T11:18:26;95223.88;;;23.23;100.00
23589;BME280;11972;48.078;11.876;2023-07-20T11:22:27;95198.03;;;23.43;100.00
23589;BME280;11972;48.078;11.876;2023-07-20T11:26:27;95196.38;;;23.88;100.00
23589;BME280;11972;48.078;11.876;2023-07-20T11:30:32;95206.53;;;24.16;100.00
23589;BME280;11972;48.078;11.876;2023-07-20T11:34:34;95198.91;;;24.39;100.00
23589;BME280;11972;48.078;11.876;2023-07-20T11:38:35;95187.03;;;24.35;100.00
23589;BME280;11972;48.078;11.876;2023-07-20T11:42:36;95191.75;;;24.63;100.00
23589;BME280;11972;48.078;11.876;2023-07-20T11:46:36;95184.41;;;24.74;100.00
23589;BME280;11972;48.078;11.876;2023-07-20T11:50:40;95201.97;;;24.12;100.00
23589;BME280;11972;48.078;11.876;2023-07-20T11:54:41;95199.88;;;23.78;100.00
23589;BME280;11972;48.078;11.876;2023-07-20T11:58:44;95196.06;;;23.99;100.00
23589;BME280;11972;48.078;11.876;2023-07-20T12:02:44;95182.03;;;24.08;100.00
23589;BME280;11972;48.078;11.876;2023-07-20T12:06:47;95177.38;;;24.18;100.00
23589;BME280;11972;48.078;11.876;2023-07-20T12:10:48;95191.44;;;24.10;100.00
23589;BME280;11972;48.078;11.876;2023-07-20T12:14:48;95170.97;;;24.04;100.00
23589;BME280;11972;48.078;11.876;2023-07-20T12:18:59;95149.25;;;24.30;100.00
23589;BME280;11972;48.078;11.876;2023-07-20T12:23:01;95168.72;;;24.21;100.00
23589;BME280;11972;48.078;11.876;2023-07-20T12:27:03;95161.31;;;23.88;100.00
23589;BME280;11972;48.078;11.876;2023-07-20T12:31:03;95153.72;;;24.00;100.00
23589;BME280;11972;48.078;11.876;2023-07-20T12:35:04;95145.47;;;24.41;100.00
23589;BME280;11972;48.078;11.876;2023-07-20T12:39:05;95151.88;;;24.50;100.00
23589;BME280;11972;48.078;11.876;2023-07-20T12:43:05;95139.34;;;24.69;100.00
23589;BME280;11972;48.078;11.876;2023-07-20T12:47:06;95141.44;;;25.46;100.00
23589;BME280;11972;48.078;11.876;2023-07-20T12:51:10;95132.44;;;25.85;100.00
23589;BME280;11972;48.078;11.876;2023-07-20T12:55:10;95134.84;;;26.10;100.00
23589;BME280;11972;48.078;11.876;2023-07-20T12:59:11;95125.88;;;25.91;100.00
23589;BME280;11972;48.078;11.876;2023-07-20T13:03:11;95127.78;;;25.61;100.00
23589;BME280;11972;48.078;11.876;2023-07-20T13:07:11;95124.59;;;25.54;100.00
23589;BME280;11972;48.078;11.876;2023-07-20T13:11:12;95127.78;;;25.61;100.00
23589;BME280;11972;48.078;11.876;2023-07-20T13:15:12;95148.69;;;25.21;100.00
23589;BME280;11972;48.078;11.876;2023-07-20T13:19:12;95123.25;;;25.28;100.00
23589;BME280;11972;48.078;11.876;2023-07-20T13:23:13;95108.22;;;26.17;100.00
23589;BME280;11972;48.078;11.876;2023-07-20T13:27:13;95116.59;;;26.40;100.00
23589;BME280;11972;48.078;11.876;2023-07-20T13:31:13;95111.09;;;26.26;100.00
23589;BME280;11972;48.078;11.876;2023-07-20T13:35:14;95109.59;;;26.77;100.00
23589;BME280;11972;48.078;11.876;2023-07-20T13:39:14;95110.88;;;26.98;100.00
23589;BME280;11972;48.078;11.876;2023-07-20T13:43:15;95101.09;;;26.64;100.00
23589;BME280;11972;48.078;11.876;2023-07-20T13:47:23;95093.81;;;26.22;100.00
23589;BME280;11972;48.078;11.876;2023-07-20T13:51:23;95101.91;;;26.46;100.00
23589;BME280;11972;48.078;11.876;2023-07-20T13:55:23;95101.25;;;26.11;100.00
23589;BME280;11972;48.078;11.876;2023-07-20T13:59:24;95097.78;;;25.87;100.00
23589;BME280;11972;48.078;11.876;2023-07-20T14:03:25;95090.03;;;26.42;100.00
23589;BME280;11972;48.078;11.876;2023-07-20T14:07:25;95084.66;;;26.37;100.00
23589;BME280;11972;48.078;11.876;2023-07-20T14:11:26;95078.03;;;26.48;100.00
23589;BME280;11972;48.078;11.876;2023-07-20T14:15:26;95073.50;;;26.95;100.00
23589;BME280;11972;48.078;11.876;2023-07-20T14:19:27;95073.53;;;26.19;100.00
23589;BME280;11972;48.078;11.876;2023-07-20T14:23:27;95070.03;;;25.52;100.00
23589;BME280;11972;48.078;11.876;2023-07-20T14:27:28;95080.84;;;25.52;100.00
23589;BME280;11972;48.078;11.876;2023-07-20T14:31:28;95075.50;;;25.47;100.00
23589;BME280;11972;48.078;11.876;2023-07-20T14:35:28;95070.53;;;25.54;100.00
23589;BME280;11972;48.078;11.876;2023-07-20T14:39:29;95062.41;;;25.54;100.00
23589;BME280;11972;48.078;11.876;2023-07-20T14:43:29;95057.22;;;26.06;100.00
23589;BME280;11972;48.078;11.876;2023-07-20T14:47:29;95055.84;;;26.84;100.00
23589;BME280;11972;48.078;11.876;2023-07-20T14:51:32;95056.34;;;28.29;100.00
23589;BME280;11972;48.078;11.876;2023-07-20T14:55:33;95039.16;;;28.69;100.00
23589;BME280;11972;48.078;11.876;2023-07-20T14:59:34;95042.97;;;28.68;96.69
23589;BME280;11972;48.078;11.876;2023-07-20T15:03:34;95027.66;;;28.73;96.14
23589;BME280;11972;48.078;11.876;2023-07-20T15:07:34;95039.31;;;28.01;95.90
23589;BME280;11972;48.078;11.876;2023-07-20T15:11:36;95036.53;;;27.04;97.96
23589;BME280;11972;48.078;11.876;2023-07-20T15:15:36;95040.94;;;26.30;100.00
23589;BME280;11972;48.078;11.876;2023-07-20T15:19:36;95038.63;;;25.80;100.00
23589;BME280;11972;48.078;11.876;2023-07-20T15:23:37;95024.38;;;25.69;100.00
23589;BME280;11972;48.078;11.876;2023-07-20T15:27:37;95025.50;;;25.68;100.00
23589;BME280;11972;48.078;11.876;2023-07-20T15:31:38;95017.44;;;26.06;100.00
23589;BME280;11972;48.078;11.876;2023-07-20T15:35:38;95017.97;;;27.11;100.00
23589;BME280;11972;48.078;11.876;2023-07-20T15:39:39;95009.66;;;28.04;100.00
23589;BME280;11972;48.078;11.876;2023-07-20T15:43:41;94997.28;;;28.48;99.25
23589;BME280;11972;48.078;11.876;2023-07-20T15:47:41;95007.47;;;28.29;94.84
23589;BME280;11972;48.078;11.876;2023-07-20T15:51:42;94996.53;;;27.84;96.96
23589;BME280;11972;48.078;11.876;2023-07-20T15:55:43;95008.06;;;27.48;97.21
23589;BME280;11972;48.078;11.876;2023-07-20T15:59:43;94995.91;;;28.59;95.99
23589;BME280;11972;48.078;11.876;2023-07-20T16:03:44;94996.06;;;29.39;92.11
23589;BME280;11972;48.078;11.876;2023-07-20T16:07:44;94977.94;;;29.74;88.81
23589;BME280;11972;48.078;11.876;2023-07-20T16:11:44;94978.47;;;29.85;86.96
23589;BME280;11972;48.078;11.876;2023-07-20T16:15:45;94981.25;;;30.37;87.65
23589;BME280;11972;48.078;11.876;2023-07-20T16:19:45;94978.50;;;29.54;87.77
23589;BME280;11972;48.078;11.876;2023-07-20T16:23:46;94979.25;;;28.97;91.37
23589;BME280;11972;48.078;11.876;2023-07-20T16:27:46;94989.06;;;28.03;92.88
23589;BME280;11972;48.078;11.876;2023-07-20T16:31:47;94982.88;;;27.34;95.98
23589;BME280;11972;48.078;11.876;2023-07-20T16:35:47;94984.81;;;26.54;98.18
23589;BME280;11972;48.078;11.876;2023-07-20T16:39:51;94979.19;;;25.94;100.00
23589;BME280;11972;48.078;11.876;2023-07-20T16:43:52;94970.88;;;25.66;100.00
23589;BME280;11972;48.078;11.876;2023-07-20T16:47:52;94970.75;;;26.33;100.00
23589;BME280;11972;48.078;11.876;2023-07-20T16:51:53;94964.59;;;27.12;100.00
23589;BME280;11972;48.078;11.876;2023-07-20T16:55:55;94963.97;;;27.84;100.00
23589;BME280;11972;48.078;11.876;2023-07-20T16:59:56;94970.91;;;27.35;98.60
23589;BME280;11972;48.078;11.876;2023-07-20T17:03:56;94973.09;;;26.59;100.00
23589;BME280;11972;48.078;11.876;2023-07-20T17:07:56;94972.47;;;26.10;100.00
23589;BME280;11972;48.078;11.876;2023-07-20T17:11:57;94964.78;;;25.98;100.00
23589;BME280;11972;48.078;11.876;2023-07-20T17:15:57;94976.34;;;25.85;100.00
23589;BME280;11972;48.078;11.876;2023-07-20T17:19:57;94978.66;;;25.92;100.00
23589;BME280;11972;48.078;11.876;2023-07-20T17:23:57;94971.72;;;25.86;100.00
23589;BME280;11972;48.078;11.876;2023-07-20T17:27:58;94970.34;;;26.07;100.00
23589;BME280;11972;48.078;11.876;2023-07-20T17:31:58;94961.03;;;26.32;100.00
23589;BME280;11972;48.078;11.876;2023-07-20T17:35:59;94968.19;;;26.42;100.00
23589;BME280;11972;48.078;11.876;2023-07-20T17:40:06;94972.16;;;26.31;100.00
23589;BME280;11972;48.078;11.876;2023-07-20T17:44:09;94971.56;;;25.96;100.00
23589;BME280;11972;48.078;11.876;2023-07-20T17:48:09;94970.75;;;25.34;100.00
23589;BME280;11972;48.078;11.876;2023-07-20T17:52:10;94981.28;;;25.11;100.00
23589;BME280;11972;48.078;11.876;2023-07-20T17:56:10;94977.91;;;24.66;100.00
23589;BME280;11972;48.078;11.876;2023-07-20T18:00:11;94978.72;;;24.27;100.00
23589;BME280;11972;48.078;11.876;2023-07-20T18:04:11;94976.66;;;24.14;100.00
23589;BME280;11972;48.078;11.876;2023-07-20T18:08:12;94970.72;;;24.17;100.00
23589;BME280;11972;48.078;11.876;2023-07-20T18:12:12;94974.06;;;24.04;100.00
23589;BME280;11972;48.078;11.876;2023-07-20T18:16:13;94974.69;;;23.91;100.00
23589;BME280;11972;48.078;11.876;2023-07-20T18:20:13;94976.38;;;23.76;100.00
23589;BME280;11972;48.078;11.876;2023-07-20T18:24:13;94983.47;;;23.52;100.00
23589;BME280;11972;48.078;11.876;2023-07-20T18:28:14;94967.13;;;23.33;100.00
23589;BME280;11972;48.078;11.876;2023-07-20T18:32:14;94974.19;;;23.14;100.00
23589;BME280;11972;48.078;11.876;2023-07-20T18:36:14;94973.72;;;22.96;100.00
23589;BME280;11972;48.078;11.876;2023-07-20T18:40:15;94981.47;;;22.88;100.00
23589;BME280;11972;48.078;11.876;2023-07-20T18:44:15;94971.56;;;22.58;100.00
23589;BME280;11972;48.078;11.876;2023-07-20T18:48:15;94973.50;;;22.26;100.00
23589;BME280;11972;48.078;11.876;2023-07-20T18:52:16;94975.25;;;21.80;100.00
23589;BME280;11972;48.078;11.876;2023-07-20T18:56:16;94972.22;;;21.41;100.00
23589;BME280;11972;48.078;11.876;2023-07-20T19:00:17;94974.19;;;21.08;100.00
23589;BME280;11972;48.078;11.876;2023-07-20T19:04:18;94973.75;;;20.79;100.00
23589;BME280;11972;48.078;11.876;2023-07-20T19:08:18;94979.22;;;20.52;100.00
23589;BME280;11972;48.078;11.876;2023-07-20T19:12:19;94985.13;;;20.22;100.00
23589;BME280;11972;48.078;11.876;2023-07-20T19:16:20;94992.13;;;19.96;100.00
23589;BME280;11972;48.078;11.876;2023-07-20T19:20:20;94985.00;;;19.79;100.00
23589;BME280;11972;48.078;11.876;2023-07-20T19:24:21;94993.41;;;19.66;100.00
23589;BME280;11972;48.078;11.876;2023-07-20T19:28:21;94998.06;;;19.54;100.00
23589;BME280;11972;48.078;11.876;2023-07-20T19:32:22;94994.50;;;19.43;100.00
23589;BME280;11972;48.078;11.876;2023-07-20T19:36:22;95003.19;;;19.33;100.00
23589;BME280;11972;48.078;11.876;2023-07-20T19:40:23;95009.25;;;19.24;100.00
23589;BME280;11972;48.078;11.876;2023-07-20T19:44:23;95014.72;;;19.12;100.00
23589;BME280;11972;48.078;11.876;2023-07-20T19:48:23;95011.81;;;18.97;100.00
23589;BME280;11972;48.078;11.876;2023-07-20T19:52:24;95016.56;;;18.90;100.00
23589;BME280;11972;48.078;11.876;2023-07-20T19:56:24;95012.38;;;18.77;100.00
23589;BME280;11972;48.078;11.876;2023-07-20T20:00:24;95014.28;;;18.65;100.00
23589;BME280;11972;48.078;11.876;2023-07-20T20:04:26;95011.72;;;18.53;100.00
23589;BME280;11972;48.078;11.876;2023-07-20T20:08:26;95013.31;;;18.37;100.00
23589;BME280;11972;48.078;11.876;2023-07-20T20:12:26;95007.16;;;18.20;100.00
23589;BME280;11972;48.078;11.876;2023-07-20T20:16:27;94996.53;;;18.08;100.00
23589;BME280;11972;48.078;11.876;2023-07-20T20:20:30;94995.56;;;17.97;100.00
23589;BME280;11972;48.078;11.876;2023-07-20T20:24:32;94994.81;;;17.85;100.00
23589;BME280;11972;48.078;11.876;2023-07-20T20:28:32;94986.16;;;17.78;100.00
23589;BME280;11972;48.078;11.876;2023-07-20T20:32:33;94999.03;;;17.69;100.00
23589;BME280;11972;48.078;11.876;2023-07-20T20:36:39;94981.84;;;17.65;100.00
23589;BME280;11972;48.078;11.876;2023-07-20T20:40:47;94982.44;;;17.67;100.00
23589;BME280;11972;48.078;11.876;2023-07-20T20:44:47;94967.06;;;17.57;100.00
23589;BME280;11972;48.078;11.876;2023-07-20T20:48:48;94967.81;;;17.41;100.00
23589;BME280;11972;48.078;11.876;2023-07-20T20:52:48;94965.66;;;17.26;100.00
23589;BME280;11972;48.078;11.876;2023-07-20T20:56:49;94957.69;;;17.15;100.00
23589;BME280;11972;48.078;11.876;2023-07-20T21:00:50;94963.53;;;17.00;100.00